createdAt,value
2023-05-25T00:01:37.830Z,24.40
2023-05-25T00:04:05.201Z,24.60
2023-05-25T00:06:33.130Z,23.95
2023-05-25T00:09:00.219Z,27.45
2023-05-25T00:11:27.558Z,25.08
2023-05-25T00:13:54.894Z,24.23
2023-05-25T00:16:22.004Z,24.00
2023-05-25T00:18:49.151Z,25.20
2023-05-25T00:21:16.547Z,27.77
2023-05-25T00:23:43.797Z,24.17
2023-05-25T00:26:11.050Z,24.45
2023-05-25T00:28:38.134Z,23.52
2023-05-25T00:31:05.327Z,25.77
2023-05-25T00:33:32.525Z,22.77
2023-05-25T00:36:00.247Z,25.17
2023-05-25T00:38:27.287Z,24.65
2023-05-25T00:40:57.523Z,25.95
2023-05-25T00:43:24.612Z,29.13
2023-05-25T00:45:51.850Z,28.77
2023-05-25T00:48:19.191Z,29.60
2023-05-25T00:50:46.635Z,34.72
2023-05-25T00:53:14.614Z,34.50
2023-05-25T00:56:02.528Z,36.42
2023-05-25T00:58:33.532Z,34.83
2023-05-25T01:01:01.927Z,38.85
2023-05-25T01:03:34.549Z,35.55
2023-05-25T01:06:02.737Z,38.13
2023-05-25T01:08:33.675Z,31.80
2023-05-25T01:11:03.344Z,38.10
2023-05-25T01:13:32.102Z,36.38
2023-05-25T01:15:59.319Z,33.97
2023-05-25T01:18:26.818Z,35.15
2023-05-25T01:21:13.508Z,44.22
2023-05-25T01:24:17.631Z,46.67
2023-05-25T01:26:58.138Z,40.97
2023-05-25T01:29:28.327Z,38.78
2023-05-25T01:31:58.531Z,41.10
2023-05-25T01:34:26.877Z,40.03
2023-05-25T01:36:54.472Z,39.60
2023-05-25T01:39:23.896Z,44.22
2023-05-25T01:41:50.965Z,49.60
2023-05-25T01:44:18.998Z,42.65
2023-05-25T01:46:50.238Z,47.67
2023-05-25T01:49:37.702Z,47.65
2023-05-25T01:52:18.466Z,48.42
2023-05-25T01:54:55.199Z,47.75
2023-05-25T01:57:24.567Z,44.10
2023-05-25T01:59:57.613Z,52.58
2023-05-25T02:02:26.336Z,50.13
2023-05-25T02:04:55.051Z,43.25
2023-05-25T02:07:23.745Z,48.78
2023-05-25T02:09:51.346Z,48.47
2023-05-25T02:12:18.437Z,48.35
2023-05-25T02:14:48.484Z,51.17
2023-05-25T02:17:17.955Z,42.65
2023-05-25T02:19:46.681Z,45.15
2023-05-25T02:22:13.730Z,48.00
2023-05-25T02:24:41.171Z,44.50
2023-05-25T02:27:08.506Z,45.92
2023-05-25T02:29:35.707Z,42.05
2023-05-25T02:32:02.843Z,48.92
2023-05-25T02:34:29.994Z,44.58
2023-05-25T02:36:57.087Z,44.10
2023-05-25T02:39:27.691Z,43.75
2023-05-25T02:41:55.037Z,42.00
2023-05-25T02:44:22.755Z,40.63
2023-05-25T02:46:49.857Z,43.63
2023-05-25T02:49:16.922Z,34.22
2023-05-25T02:51:43.981Z,38.65
2023-05-25T02:54:11.055Z,40.08
2023-05-25T02:56:38.076Z,36.90
2023-05-25T02:59:05.390Z,40.35
2023-05-25T03:01:35.069Z,37.08
2023-05-25T03:04:02.497Z,37.97
2023-05-25T03:06:29.609Z,39.92
2023-05-25T03:08:56.696Z,36.38
2023-05-25T03:11:23.806Z,37.45
2023-05-25T03:13:51.812Z,35.60
2023-05-25T03:16:18.994Z,40.03
2023-05-25T03:18:46.495Z,38.38
2023-05-25T03:21:13.577Z,37.05
2023-05-25T03:23:40.822Z,36.05
2023-05-25T03:26:07.961Z,39.72
2023-05-25T03:28:35.210Z,32.78
2023-05-25T03:31:02.353Z,36.55
2023-05-25T03:33:29.412Z,38.92
2023-05-25T03:35:56.734Z,35.78
2023-05-25T03:38:23.783Z,33.80
2023-05-25T03:40:50.902Z,38.40
2023-05-25T03:43:18.136Z,33.30
2023-05-25T03:45:45.467Z,32.28
2023-05-25T03:48:12.708Z,41.17
2023-05-25T03:50:40.960Z,37.75
2023-05-25T03:53:08.700Z,33.95
2023-05-25T03:55:35.791Z,39.08
2023-05-25T03:58:02.904Z,35.47
2023-05-25T04:00:30.031Z,32.38
2023-05-25T04:02:57.391Z,34.92
2023-05-25T04:05:24.684Z,36.55
2023-05-25T04:07:52.286Z,41.42
2023-05-25T04:10:19.368Z,39.83
2023-05-25T04:12:46.684Z,36.65
2023-05-25T04:15:14.564Z,42.97
2023-05-25T04:17:41.754Z,47.33
2023-05-25T04:20:09.670Z,39.83
2023-05-25T04:22:39.087Z,42.05
2023-05-25T04:25:08.246Z,38.65
2023-05-25T04:27:35.697Z,37.72
2023-05-25T04:30:04.199Z,37.55
2023-05-25T04:32:32.108Z,40.83
2023-05-25T04:34:59.413Z,34.80
2023-05-25T04:37:27.618Z,32.50
2023-05-25T04:39:54.829Z,35.90
2023-05-25T04:42:24.140Z,33.47
2023-05-25T04:45:00.829Z,37.90
2023-05-25T04:47:27.915Z,33.65
2023-05-25T04:49:55.047Z,34.92
2023-05-25T04:52:22.055Z,38.80
2023-05-25T04:54:49.109Z,42.10
2023-05-25T04:57:16.260Z,36.85
2023-05-25T04:59:43.375Z,33.95
2023-05-25T05:02:10.460Z,35.55
2023-05-25T05:04:38.602Z,36.25
2023-05-25T05:07:05.853Z,43.55
2023-05-25T05:09:32.893Z,36.65
2023-05-25T05:11:59.965Z,36.13
2023-05-25T05:14:27.011Z,38.08
2023-05-25T05:16:54.197Z,37.92
2023-05-25T05:19:21.352Z,37.70
2023-05-25T05:21:48.410Z,35.35
2023-05-25T05:24:15.623Z,36.42
2023-05-25T05:26:56.200Z,37.00
2023-05-25T05:29:25.152Z,35.53
2023-05-25T05:31:52.331Z,41.20
2023-05-25T05:34:19.467Z,38.70
2023-05-25T05:36:57.372Z,31.90
2023-05-25T05:39:26.311Z,30.90
2023-05-25T05:41:54.445Z,32.22
2023-05-25T05:44:23.926Z,31.77
2023-05-25T05:46:52.621Z,28.85
2023-05-25T05:49:19.788Z,36.92
2023-05-25T05:51:46.807Z,29.67
2023-05-25T05:54:13.854Z,33.47
2023-05-25T05:56:41.129Z,34.55
2023-05-25T05:59:08.499Z,31.90
2023-05-25T06:01:36.722Z,31.58
2023-05-25T06:04:06.236Z,34.00
2023-05-25T06:06:35.173Z,33.45
2023-05-25T06:09:04.500Z,34.45
2023-05-25T06:11:31.634Z,35.85
2023-05-25T06:13:58.758Z,33.28
2023-05-25T06:16:25.869Z,32.40
2023-05-25T06:18:52.948Z,32.40
2023-05-25T06:21:20.112Z,31.00
2023-05-25T06:23:48.281Z,33.67
2023-05-25T06:26:15.421Z,32.08
2023-05-25T06:28:42.726Z,31.63
2023-05-25T06:31:09.833Z,42.90
2023-05-25T06:33:36.866Z,33.25
2023-05-25T06:36:04.926Z,32.60
2023-05-25T06:38:32.296Z,34.88
2023-05-25T06:41:03.358Z,36.13
2023-05-25T06:43:32.258Z,30.52
2023-05-25T06:45:59.585Z,40.92
2023-05-25T06:48:26.724Z,32.65
2023-05-25T06:50:53.764Z,39.95
2023-05-25T06:53:20.825Z,35.92
2023-05-25T06:55:48.306Z,41.97
2023-05-25T06:58:15.569Z,30.42
2023-05-25T07:00:43.675Z,32.65
2023-05-25T07:03:11.817Z,33.72
2023-05-25T07:05:38.953Z,37.40
2023-05-25T07:08:06.358Z,35.70
2023-05-25T07:10:34.641Z,36.50
2023-05-25T07:13:01.660Z,39.85
2023-05-25T07:15:28.786Z,35.97
2023-05-25T07:17:57.440Z,35.28
2023-05-25T07:20:25.117Z,39.70
2023-05-25T07:22:53.478Z,39.15
2023-05-25T07:25:21.342Z,49.30
2023-05-25T07:27:50.324Z,37.80
2023-05-25T07:30:17.503Z,31.88
2023-05-25T07:32:44.620Z,35.00
2023-05-25T07:35:11.719Z,35.55
2023-05-25T07:37:38.807Z,38.10
2023-05-25T07:40:06.952Z,31.70
2023-05-25T07:42:34.331Z,32.13
2023-05-25T07:45:02.451Z,38.40
2023-05-25T07:47:29.808Z,44.40
2023-05-25T07:49:57.034Z,29.38
2023-05-25T07:52:24.186Z,29.33
2023-05-25T07:54:51.414Z,33.22
2023-05-25T07:57:18.633Z,35.67
2023-05-25T07:59:45.699Z,35.15
2023-05-25T08:02:12.863Z,34.85
2023-05-25T08:04:40.115Z,31.05
2023-05-25T08:07:07.545Z,30.38
2023-05-25T08:09:34.577Z,31.38
2023-05-25T08:12:23.841Z,37.60
2023-05-25T08:14:48.906Z,27.70
2023-05-25T08:17:16.110Z,34.75
2023-05-25T08:19:43.212Z,33.00
2023-05-25T08:22:10.298Z,33.42
2023-05-25T08:24:37.440Z,31.15
2023-05-25T08:27:04.972Z,29.13
2023-05-25T08:29:32.002Z,33.17
2023-05-25T08:31:59.055Z,24.45
2023-05-25T08:34:26.196Z,33.40
2023-05-25T08:36:53.335Z,26.13
2023-05-25T08:39:20.484Z,23.15
2023-05-25T08:41:48.352Z,28.15
2023-05-25T08:44:15.568Z,24.35
2023-05-25T08:46:42.876Z,21.92
2023-05-25T08:49:11.256Z,27.35
2023-05-25T08:51:48.175Z,25.05
2023-05-25T08:54:26.491Z,20.50
2023-05-25T08:56:59.968Z,20.52
2023-05-25T08:59:53.218Z,24.25
2023-05-25T09:02:42.391Z,20.77
2023-05-25T09:05:09.978Z,24.00
2023-05-25T09:07:37.342Z,23.67
2023-05-25T09:10:05.187Z,18.80
2023-05-25T09:12:32.751Z,20.02
2023-05-25T09:15:00.064Z,19.17
2023-05-25T09:17:27.387Z,21.27
2023-05-25T09:19:55.014Z,24.17
2023-05-25T09:22:22.411Z,26.30
2023-05-25T09:24:50.074Z,20.95
2023-05-25T09:27:22.400Z,21.95
2023-05-25T09:29:51.018Z,22.90
2023-05-25T09:32:19.670Z,17.98
2023-05-25T09:34:48.033Z,26.83
2023-05-25T09:37:19.230Z,20.02
2023-05-25T09:39:47.940Z,17.52
2023-05-25T09:42:15.294Z,19.67
2023-05-25T09:44:45.508Z,23.70
2023-05-25T09:47:13.974Z,21.63
2023-05-25T09:49:42.047Z,24.45
2023-05-25T09:52:09.399Z,22.67
2023-05-25T09:54:38.378Z,19.42
2023-05-25T09:57:06.354Z,23.55
2023-05-25T09:59:33.410Z,23.20
2023-05-25T10:02:01.221Z,19.75
2023-05-25T10:04:28.524Z,21.38
2023-05-25T10:06:57.047Z,23.70
2023-05-25T10:09:26.098Z,22.17
2023-05-25T10:11:54.928Z,19.77
2023-05-25T10:14:29.373Z,19.40
2023-05-25T10:16:59.629Z,23.20
2023-05-25T10:19:50.934Z,27.42
2023-05-25T10:22:36.406Z,23.52
2023-05-25T10:25:40.017Z,21.63
2023-05-25T10:28:35.715Z,22.67
2023-05-25T10:31:05.362Z,23.67
2023-05-25T10:33:33.660Z,29.73
2023-05-25T10:38:37.510Z,20.02
2023-05-25T10:41:06.080Z,29.08
2023-05-25T10:43:33.558Z,25.05
2023-05-25T10:46:01.116Z,20.52
2023-05-25T10:48:46.867Z,17.02
2023-05-25T10:51:15.735Z,19.80
2023-05-25T10:53:47.604Z,24.55
2023-05-25T10:56:14.933Z,21.60
2023-05-25T10:58:44.251Z,25.10
2023-05-25T11:01:15.903Z,19.63
2023-05-25T11:03:59.015Z,22.90
2023-05-25T11:06:40.378Z,15.20
2023-05-25T11:09:07.807Z,21.02
2023-05-25T11:11:44.525Z,18.33
2023-05-25T11:14:42.201Z,20.00
2023-05-25T11:17:14.806Z,23.50
2023-05-25T11:19:56.428Z,17.33
2023-05-25T11:22:35.506Z,17.85
2023-05-25T11:25:24.304Z,17.85
2023-05-25T11:27:54.319Z,20.27
2023-05-25T11:30:28.404Z,17.08
2023-05-25T11:32:59.697Z,24.38
2023-05-25T11:35:26.954Z,27.55
2023-05-25T11:37:55.109Z,25.58
2023-05-25T11:40:25.231Z,25.90
2023-05-25T11:42:53.779Z,29.17
2023-05-25T11:45:23.276Z,20.10
2023-05-25T11:47:50.389Z,20.50
2023-05-25T11:50:17.898Z,19.52
2023-05-25T11:52:45.077Z,18.08
2023-05-25T11:55:15.918Z,17.23
2023-05-25T11:57:43.197Z,19.25
2023-05-25T12:00:11.530Z,17.40
2023-05-25T12:02:41.238Z,15.00
2023-05-25T12:05:11.168Z,13.20
2023-05-25T12:07:46.722Z,20.33
2023-05-25T12:10:16.637Z,18.20
2023-05-25T12:12:44.679Z,13.55
2023-05-25T12:15:31.556Z,13.18
2023-05-25T12:17:58.913Z,17.77
2023-05-25T12:20:26.288Z,17.52
2023-05-25T12:22:53.950Z,16.98
2023-05-25T12:25:22.557Z,15.80
2023-05-25T12:27:49.799Z,17.08
2023-05-25T12:30:16.937Z,16.17
2023-05-25T12:33:04.212Z,17.30
2023-05-25T12:35:48.799Z,16.02
2023-05-25T12:38:23.745Z,14.02
2023-05-25T12:41:09.586Z,11.80
2023-05-25T12:43:39.213Z,16.48
2023-05-25T12:46:06.260Z,11.85
2023-05-25T12:48:33.369Z,15.70
2023-05-25T12:51:00.854Z,13.55
2023-05-25T12:53:29.109Z,14.50
2023-05-25T12:56:04.299Z,14.18
2023-05-25T12:58:31.410Z,12.45
2023-05-25T13:00:58.619Z,13.43
2023-05-25T13:03:25.683Z,10.95
2023-05-25T13:06:03.609Z,10.93
2023-05-25T13:08:30.793Z,12.75
2023-05-25T13:10:57.941Z,11.02
2023-05-25T13:13:25.001Z,11.88
2023-05-25T13:15:52.029Z,11.57
2023-05-25T13:18:19.056Z,17.90
2023-05-25T13:20:49.888Z,9.95
2023-05-25T13:23:18.459Z,13.95
2023-05-25T13:25:46.234Z,12.07
2023-05-25T13:28:13.260Z,13.68
2023-05-25T13:30:40.379Z,11.82
2023-05-25T13:33:07.478Z,11.70
2023-05-25T13:35:41.711Z,13.63
2023-05-25T13:38:10.562Z,16.35
2023-05-25T13:40:37.675Z,13.50
2023-05-25T13:43:04.841Z,11.90
2023-05-25T13:45:31.901Z,11.77
2023-05-25T13:47:59.034Z,15.38
2023-05-25T13:50:26.318Z,12.15
2023-05-25T13:52:53.393Z,11.68
2023-05-25T13:55:20.553Z,11.82
2023-05-25T13:57:47.568Z,19.90
2023-05-25T14:00:15.116Z,14.05
2023-05-25T14:02:42.285Z,10.20
2023-05-25T14:05:09.615Z,10.45
2023-05-25T14:07:37.563Z,16.25
2023-05-25T14:10:05.963Z,17.73
2023-05-25T14:12:33.226Z,15.70
2023-05-25T14:15:00.462Z,16.88
2023-05-25T14:17:27.531Z,16.40
2023-05-25T14:19:54.605Z,17.75
2023-05-25T14:22:21.682Z,17.80
2023-05-25T14:24:48.685Z,14.63
2023-05-25T14:27:20.922Z,14.90
2023-05-25T14:29:49.660Z,14.88
2023-05-25T14:32:17.678Z,15.75
2023-05-25T14:34:45.336Z,13.57
2023-05-25T14:37:12.448Z,17.58
2023-05-25T14:39:39.546Z,13.63
2023-05-25T14:42:06.916Z,10.57
2023-05-25T14:44:33.962Z,11.52
2023-05-25T14:47:01.178Z,10.98
2023-05-25T14:49:28.413Z,14.40
2023-05-25T14:51:55.530Z,16.02
2023-05-25T14:54:22.563Z,14.13
2023-05-25T14:56:49.657Z,14.40
2023-05-25T14:59:17.062Z,12.38
2023-05-25T15:01:44.946Z,14.23
2023-05-25T15:04:13.032Z,13.85
2023-05-25T15:06:40.702Z,16.00
2023-05-25T15:09:07.822Z,10.10
2023-05-25T15:11:35.058Z,12.35
2023-05-25T15:14:02.235Z,14.35
2023-05-25T15:16:29.309Z,12.73
2023-05-25T15:18:56.402Z,14.70
2023-05-25T15:21:23.491Z,12.90
2023-05-25T15:23:51.058Z,13.00
2023-05-25T15:26:18.094Z,15.70
2023-05-25T15:28:45.164Z,17.23
2023-05-25T15:31:12.297Z,13.90
2023-05-25T15:33:51.960Z,9.55
2023-05-25T15:36:21.238Z,9.60
2023-05-25T15:38:49.481Z,10.90
2023-05-25T15:41:17.674Z,12.07
2023-05-25T15:43:54.636Z,13.98
2023-05-25T15:46:21.989Z,11.85
2023-05-25T15:48:49.203Z,12.45
2023-05-25T15:51:16.353Z,12.15
2023-05-25T15:53:43.563Z,11.38
2023-05-25T15:56:11.061Z,11.07
2023-05-25T15:58:38.275Z,12.48
2023-05-25T16:01:05.582Z,18.67
2023-05-25T16:03:32.750Z,13.77
2023-05-25T16:05:59.907Z,17.63
2023-05-25T16:08:26.982Z,14.63
2023-05-25T16:10:54.068Z,14.32
2023-05-25T16:13:21.093Z,14.00
2023-05-25T16:15:48.174Z,12.13
2023-05-25T16:18:16.642Z,11.18
2023-05-25T16:20:44.234Z,12.02
2023-05-25T16:23:11.414Z,15.15
2023-05-25T16:25:38.497Z,13.15
2023-05-25T16:28:05.527Z,12.55
2023-05-25T16:30:32.523Z,12.77
2023-05-25T16:32:59.553Z,15.48
2023-05-25T16:35:26.595Z,18.25
2023-05-25T16:37:53.690Z,11.27
2023-05-25T16:40:20.851Z,12.70
2023-05-25T16:42:47.872Z,12.70
2023-05-25T16:45:14.974Z,17.65
2023-05-25T16:47:42.057Z,11.45
2023-05-25T16:50:09.445Z,13.13
2023-05-25T16:52:36.431Z,14.57
2023-05-25T16:55:03.753Z,13.18
2023-05-25T16:57:30.761Z,15.15
2023-05-25T16:59:57.801Z,13.07
2023-05-25T17:02:25.139Z,10.55
2023-05-25T17:04:52.219Z,11.05
2023-05-25T17:07:19.286Z,12.95
2023-05-25T17:09:46.312Z,19.27
2023-05-25T17:12:13.353Z,13.93
2023-05-25T17:14:40.398Z,16.13
2023-05-25T17:17:07.468Z,12.57
2023-05-25T17:19:34.842Z,20.17
2023-05-25T17:22:01.922Z,15.10
2023-05-25T17:24:28.943Z,15.70
2023-05-25T17:26:56.116Z,17.30
2023-05-25T17:29:23.178Z,14.85
2023-05-25T17:31:50.591Z,15.55
2023-05-25T17:34:17.674Z,13.38
2023-05-25T17:36:44.747Z,15.25
2023-05-25T17:39:11.767Z,14.40
2023-05-25T17:41:38.812Z,26.17
2023-05-25T17:44:06.082Z,35.67
2023-05-25T17:46:33.160Z,17.23
2023-05-25T17:49:04.469Z,26.83
2023-05-25T17:51:31.497Z,14.10
2023-05-25T17:53:58.495Z,10.52
2023-05-25T17:56:26.505Z,13.88
2023-05-25T17:58:53.568Z,11.82
2023-05-25T18:01:20.866Z,12.95
2023-05-25T18:03:50.682Z,18.67
2023-05-25T18:06:17.864Z,19.77
2023-05-25T18:08:44.935Z,16.60
2023-05-25T18:11:11.951Z,12.55
2023-05-25T18:13:40.097Z,16.33
2023-05-25T18:16:07.123Z,18.55
2023-05-25T18:18:34.171Z,12.02
2023-05-25T18:21:01.198Z,26.45
2023-05-25T18:23:28.195Z,15.85
2023-05-25T18:25:55.277Z,15.23
2023-05-25T18:28:23.582Z,11.07
2023-05-25T18:30:50.703Z,16.52
2023-05-25T18:33:17.769Z,16.58
2023-05-25T18:35:45.087Z,13.07
2023-05-25T18:38:12.332Z,15.52
2023-05-25T18:40:39.376Z,19.90
2023-05-25T18:43:07.787Z,14.13
2023-05-25T18:45:34.930Z,17.48
2023-05-25T18:48:07.613Z,13.60
2023-05-25T18:50:39.448Z,12.75
2023-05-25T18:53:09.819Z,12.23
2023-05-25T18:55:37.763Z,16.65
2023-05-25T18:58:05.007Z,19.73
2023-05-25T19:00:32.082Z,14.05
2023-05-25T19:02:59.389Z,13.98
2023-05-25T19:05:26.552Z,15.77
2023-05-25T19:07:59.179Z,12.40
2023-05-25T19:10:27.061Z,13.52
2023-05-25T19:12:54.189Z,16.55
2023-05-25T19:15:21.396Z,14.55
2023-05-25T19:17:48.481Z,16.15
2023-05-25T19:20:15.975Z,14.88
2023-05-25T19:22:43.530Z,15.18
2023-05-25T19:25:10.727Z,16.52
2023-05-25T19:27:37.749Z,22.25
2023-05-25T19:30:05.501Z,13.25
2023-05-25T19:32:32.702Z,15.98
2023-05-25T19:34:59.804Z,15.65
2023-05-25T19:37:27.064Z,12.38
2023-05-25T19:39:54.099Z,18.80
2023-05-25T19:42:21.160Z,15.43
2023-05-25T19:44:48.182Z,14.32
2023-05-25T19:47:15.266Z,14.45
2023-05-25T19:49:42.903Z,16.40
2023-05-25T19:52:10.032Z,15.65
2023-05-25T19:54:38.650Z,18.40
2023-05-25T19:57:06.829Z,16.38
2023-05-25T19:59:33.962Z,13.30
2023-05-25T20:02:01.067Z,16.83
2023-05-25T20:04:28.066Z,18.10
2023-05-25T20:06:55.459Z,15.85
2023-05-25T20:09:30.731Z,16.20
2023-05-25T20:11:58.661Z,14.15
2023-05-25T20:14:26.523Z,15.55
2023-05-25T20:16:55.953Z,16.17
2023-05-25T20:19:25.860Z,15.77
2023-05-25T20:21:53.017Z,19.27
2023-05-25T20:24:20.099Z,22.92
2023-05-25T20:26:47.125Z,16.48
2023-05-25T20:29:15.277Z,18.95
2023-05-25T20:31:42.377Z,26.05
2023-05-25T20:34:09.422Z,15.27
2023-05-25T20:36:36.667Z,19.13
2023-05-25T20:39:03.823Z,16.90
2023-05-25T20:41:30.992Z,14.55
2023-05-25T20:43:58.154Z,16.52
2023-05-25T20:46:26.262Z,16.42
2023-05-25T20:48:53.826Z,21.67
2023-05-25T20:51:21.945Z,21.40
2023-05-25T20:53:49.391Z,13.88
2023-05-25T20:56:17.102Z,15.75
2023-05-25T20:58:44.585Z,16.48
2023-05-25T21:01:12.380Z,18.83
2023-05-25T21:03:40.076Z,20.23
2023-05-25T21:06:07.484Z,15.93
2023-05-25T21:08:35.150Z,16.67
2023-05-25T21:11:02.533Z,23.10
2023-05-25T21:13:29.588Z,16.70
2023-05-25T21:15:56.828Z,14.75
2023-05-25T21:18:24.043Z,15.68
2023-05-25T21:20:51.150Z,15.13
2023-05-25T21:23:18.225Z,16.13
2023-05-25T21:25:46.000Z,13.32
2023-05-25T21:28:13.394Z,14.30
2023-05-25T21:30:40.422Z,12.02
2023-05-25T21:33:07.634Z,11.13
2023-05-25T21:35:34.717Z,13.35
2023-05-25T21:38:01.837Z,15.02
2023-05-25T21:40:28.819Z,13.65
2023-05-25T21:42:55.836Z,22.35
2023-05-25T21:45:22.934Z,26.45
2023-05-25T21:47:50.136Z,16.90
2023-05-25T21:50:17.214Z,21.15
2023-05-25T21:52:44.364Z,22.15
2023-05-25T21:55:11.451Z,17.50
2023-05-25T21:57:38.490Z,12.00
2023-05-25T22:00:06.609Z,16.58
2023-05-25T22:02:33.917Z,14.45
2023-05-25T22:05:01.054Z,13.07
2023-05-25T22:07:28.162Z,13.32
2023-05-25T22:09:55.425Z,10.48
2023-05-25T22:12:22.594Z,13.90
2023-05-25T22:14:50.029Z,11.52
2023-05-25T22:17:19.148Z,11.18
2023-05-25T22:19:55.329Z,16.77
2023-05-25T22:22:33.290Z,18.35
2023-05-25T22:25:00.349Z,15.13
2023-05-25T22:27:27.458Z,13.32
2023-05-25T22:29:54.534Z,10.32
2023-05-25T22:32:21.732Z,9.75
2023-05-25T22:34:49.030Z,12.43
2023-05-25T22:37:17.451Z,10.52
2023-05-25T22:39:44.985Z,9.10
2023-05-25T22:42:12.036Z,9.45
2023-05-25T22:44:39.273Z,12.32
2023-05-25T22:47:07.076Z,9.38
2023-05-25T22:49:41.269Z,13.70
2023-05-25T22:52:11.234Z,14.80
2023-05-25T22:54:38.378Z,10.90
2023-05-25T22:57:06.497Z,12.73
2023-05-25T22:59:33.598Z,9.60
2023-05-25T23:02:00.854Z,10.23
2023-05-25T23:04:28.143Z,8.82
2023-05-25T23:06:55.215Z,16.60
2023-05-25T23:09:22.303Z,8.70
2023-05-25T23:11:49.361Z,10.52
2023-05-25T23:14:16.384Z,8.90
2023-05-25T23:16:44.472Z,10.02
2023-05-25T23:19:11.663Z,10.10
2023-05-25T23:21:38.724Z,12.30
2023-05-25T23:24:06.300Z,11.15
2023-05-25T23:26:33.341Z,13.55
2023-05-25T23:29:00.395Z,13.27
2023-05-25T23:31:27.509Z,9.15
2023-05-25T23:33:54.596Z,14.07
2023-05-25T23:36:21.612Z,11.70
2023-05-25T23:38:48.665Z,12.73
2023-05-25T23:41:16.579Z,10.38
2023-05-25T23:43:43.676Z,11.65
2023-05-25T23:46:10.823Z,14.43
2023-05-25T23:48:37.921Z,12.48
2023-05-25T23:51:07.472Z,14.82
2023-05-25T23:53:34.799Z,11.48
2023-05-25T23:56:01.875Z,12.23
2023-05-25T23:58:28.911Z,11.50
